sensor_id;sensor_type;location;lat;lon;timestamp;temperature;humidity
9393;DHT22;4736;52.508;13.422;2024-01-15T00:02:38;1.60;77.50
9393;DHT22;4736;52.508;13.422;2024-01-15T00:05:41;1.60;77.80
9393;DHT22;4736;52.508;13.422;2024-01-15T00:08:44;1.50;78.10
9393;DHT22;4736;52.508;13.422;2024-01-15T00:11:47;1.50;78.50
9393;DHT22;4736;52.508;13.422;2024-01-15T00:14:51;1.50;78.60
9393;DHT22;4736;52.508;13.422;2024-01-15T00:17:55;1.50;78.50
9393;DHT22;4736;52.508;13.422;2024-01-15T00:20:58;1.50;78.40
9393;DHT22;4736;52.508;13.422;2024-01-15T00:24:01;1.40;78.90
9393;DHT22;4736;52.508;13.422;2024-01-15T00:27:04;1.40;78.70
9393;DHT22;4736;52.508;13.422;2024-01-15T00:30:10;1.40;78.70
9393;DHT22;4736;52.508;13.422;2024-01-15T00:33:14;1.40;78.80
9393;DHT22;4736;52.508;13.422;2024-01-15T00:36:17;1.40;78.50
9393;DHT22;4736;52.508;13.422;2024-01-15T00:39:20;1.40;78.70
9393;DHT22;4736;52.508;13.422;2024-01-15T00:42:23;1.40;78.40
9393;DHT22;4736;52.508;13.422;2024-01-15T00:45:28;1.40;78.00
9393;DHT22;4736;52.508;13.422;2024-01-15T00:48:32;1.50;78.00
9393;DHT22;4736;52.508;13.422;2024-01-15T00:51:35;1.50;77.60
9393;DHT22;4736;52.508;13.422;2024-01-15T00:54:38;1.50;77.40
9393;DHT22;4736;52.508;13.422;2024-01-15T00:57:42;1.50;77.20
9393;DHT22;4736;52.508;13.422;2024-01-15T01:00:46;1.50;77.50
9393;DHT22;4736;52.508;13.422;2024-01-15T01:03:51;1.50;77.50
9393;DHT22;4736;52.508;13.422;2024-01-15T01:06:54;1.50;77.50
9393;DHT22;4736;52.508;13.422;2024-01-15T01:09:58;1.40;77.80
9393;DHT22;4736;52.508;13.422;2024-01-15T01:13:01;1.40;78.20
9393;DHT22;4736;52.508;13.422;2024-01-15T01:16:05;1.40;78.30
9393;DHT22;4736;52.508;13.422;2024-01-15T01:19:08;1.40;78.60
9393;DHT22;4736;52.508;13.422;2024-01-15T01:22:12;1.20;79.10
9393;DHT22;4736;52.508;13.422;2024-01-15T01:25:15;1.20;79.20
9393;DHT22;4736;52.508;13.422;2024-01-15T01:28:18;1.10;79.80
9393;DHT22;4736;52.508;13.422;2024-01-15T01:31:23;1.10;80.10
9393;DHT22;4736;52.508;13.422;2024-01-15T01:34:26;1.10;80.00
9393;DHT22;4736;52.508;13.422;2024-01-15T01:37:33;1.10;79.80
9393;DHT22;4736;52.508;13.422;2024-01-15T01:40:36;1.20;79.80
9393;DHT22;4736;52.508;13.422;2024-01-15T01:43:40;1.10;80.10
9393;DHT22;4736;52.508;13.422;2024-01-15T01:46:44;1.20;80.00
9393;DHT22;4736;52.508;13.422;2024-01-15T01:49:47;1.10;80.10
9393;DHT22;4736;52.508;13.422;2024-01-15T01:52:50;1.00;80.50
9393;DHT22;4736;52.508;13.422;2024-01-15T01:55:55;1.00;80.80
9393;DHT22;4736;52.508;13.422;2024-01-15T01:58:59;0.80;81.40
9393;DHT22;4736;52.508;13.422;2024-01-15T02:02:04;0.80;81.60
9393;DHT22;4736;52.508;13.422;2024-01-15T02:05:09;0.80;81.00
9393;DHT22;4736;52.508;13.422;2024-01-15T02:08:12;0.90;81.20
9393;DHT22;4736;52.508;13.422;2024-01-15T02:11:15;1.00;80.90
9393;DHT22;4736;52.508;13.422;2024-01-15T02:14:18;1.00;80.80
9393;DHT22;4736;52.508;13.422;2024-01-15T02:17:23;0.90;80.80
9393;DHT22;4736;52.508;13.422;2024-01-15T02:20:26;0.90;80.90
9393;DHT22;4736;52.508;13.422;2024-01-15T02:23:30;0.90;80.70
9393;DHT22;4736;52.508;13.422;2024-01-15T02:26:33;0.80;80.40
9393;DHT22;4736;52.508;13.422;2024-01-15T02:29:39;1.00;80.20
9393;DHT22;4736;52.508;13.422;2024-01-15T02:32:42;0.90;79.60
9393;DHT22;4736;52.508;13.422;2024-01-15T02:35:45;0.90;79.50
9393;DHT22;4736;52.508;13.422;2024-01-15T02:38:53;1.00;78.70
9393;DHT22;4736;52.508;13.422;2024-01-15T02:41:56;1.00;78.20
9393;DHT22;4736;52.508;13.422;2024-01-15T02:44:59;1.00;78.10
9393;DHT22;4736;52.508;13.422;2024-01-15T02:48:03;1.00;78.20
9393;DHT22;4736;52.508;13.422;2024-01-15T02:51:06;1.00;77.80
9393;DHT22;4736;52.508;13.422;2024-01-15T02:54:11;1.00;77.90
9393;DHT22;4736;52.508;13.422;2024-01-15T02:57:14;1.00;77.30
9393;DHT22;4736;52.508;13.422;2024-01-15T03:00:17;1.00;77.30
9393;DHT22;4736;52.508;13.422;2024-01-15T03:03:20;1.10;77.30
9393;DHT22;4736;52.508;13.422;2024-01-15T03:06:24;1.10;77.30
9393;DHT22;4736;52.508;13.422;2024-01-15T03:09:28;1.00;77.50
9393;DHT22;4736;52.508;13.422;2024-01-15T03:12:31;1.10;77.60
9393;DHT22;4736;52.508;13.422;2024-01-15T03:15:34;1.10;77.20
9393;DHT22;4736;52.508;13.422;2024-01-15T03:18:38;1.10;77.00
9393;DHT22;4736;52.508;13.422;2024-01-15T03:21:41;1.10;76.60
9393;DHT22;4736;52.508;13.422;2024-01-15T03:24:46;1.10;76.40
9393;DHT22;4736;52.508;13.422;2024-01-15T03:27:49;1.10;76.50
9393;DHT22;4736;52.508;13.422;2024-01-15T03:30:52;1.10;76.30
9393;DHT22;4736;52.508;13.422;2024-01-15T03:33:56;1.10;76.40
9393;DHT22;4736;52.508;13.422;2024-01-15T03:37:01;1.00;76.20
9393;DHT22;4736;52.508;13.422;2024-01-15T03:40:07;1.10;76.40
9393;DHT22;4736;52.508;13.422;2024-01-15T03:43:11;1.10;75.90
9393;DHT22;4736;52.508;13.422;2024-01-15T03:46:14;1.10;76.00
9393;DHT22;4736;52.508;13.422;2024-01-15T03:49:17;1.00;76.10
9393;DHT22;4736;52.508;13.422;2024-01-15T03:52:20;1.00;76.10
9393;DHT22;4736;52.508;13.422;2024-01-15T03:55:25;1.10;75.70
9393;DHT22;4736;52.508;13.422;2024-01-15T03:58:28;1.10;75.60
9393;DHT22;4736;52.508;13.422;2024-01-15T04:01:31;1.10;75.60
9393;DHT22;4736;52.508;13.422;2024-01-15T04:04:34;1.10;75.50
9393;DHT22;4736;52.508;13.422;2024-01-15T04:07:38;1.10;75.50
9393;DHT22;4736;52.508;13.422;2024-01-15T04:10:42;1.10;75.50
9393;DHT22;4736;52.508;13.422;2024-01-15T04:13:45;1.10;75.60
9393;DHT22;4736;52.508;13.422;2024-01-15T04:16:48;1.10;75.50
9393;DHT22;4736;52.508;13.422;2024-01-15T04:19:51;1.20;75.70
9393;DHT22;4736;52.508;13.422;2024-01-15T04:22:55;1.20;75.20
9393;DHT22;4736;52.508;13.422;2024-01-15T04:25:59;1.20;75.30
9393;DHT22;4736;52.508;13.422;2024-01-15T04:29:02;1.20;75.00
9393;DHT22;4736;52.508;13.422;2024-01-15T04:32:05;1.20;74.90
9393;DHT22;4736;52.508;13.422;2024-01-15T04:35:09;1.20;74.80
9393;DHT22;4736;52.508;13.422;2024-01-15T04:38:13;1.30;74.70
9393;DHT22;4736;52.508;13.422;2024-01-15T04:41:18;1.30;74.80
9393;DHT22;4736;52.508;13.422;2024-01-15T04:44:21;1.30;74.70
9393;DHT22;4736;52.508;13.422;2024-01-15T04:47:24;1.40;74.40
9393;DHT22;4736;52.508;13.422;2024-01-15T04:50:27;1.40;74.20
9393;DHT22;4736;52.508;13.422;2024-01-15T04:53:30;1.40;74.30
9393;DHT22;4736;52.508;13.422;2024-01-15T04:56:35;1.40;74.10
9393;DHT22;4736;52.508;13.422;2024-01-15T04:59:38;1.40;73.90
9393;DHT22;4736;52.508;13.422;2024-01-15T05:02:41;1.40;73.70
9393;DHT22;4736;52.508;13.422;2024-01-15T05:05:44;1.40;73.60
9393;DHT22;4736;52.508;13.422;2024-01-15T05:08:47;1.40;73.70
9393;DHT22;4736;52.508;13.422;2024-01-15T05:11:52;1.40;73.30
9393;DHT22;4736;52.508;13.422;2024-01-15T05:14:55;1.40;73.50
9393;DHT22;4736;52.508;13.422;2024-01-15T05:17:58;1.40;73.10
9393;DHT22;4736;52.508;13.422;2024-01-15T05:21:01;1.40;73.30
9393;DHT22;4736;52.508;13.422;2024-01-15T05:24:04;1.40;73.60
9393;DHT22;4736;52.508;13.422;2024-01-15T05:27:09;1.40;74.00
9393;DHT22;4736;52.508;13.422;2024-01-15T05:30:13;1.40;74.30
9393;DHT22;4736;52.508;13.422;2024-01-15T05:33:16;1.40;74.50
9393;DHT22;4736;52.508;13.422;2024-01-15T05:36:19;1.40;74.50
9393;DHT22;4736;52.508;13.422;2024-01-15T05:39:23;1.40;74.20
9393;DHT22;4736;52.508;13.422;2024-01-15T05:42:28;1.40;74.10
9393;DHT22;4736;52.508;13.422;2024-01-15T05:45:34;1.40;74.20
9393;DHT22;4736;52.508;13.422;2024-01-15T05:48:37;1.40;73.90
9393;DHT22;4736;52.508;13.422;2024-01-15T05:51:41;1.40;73.80
9393;DHT22;4736;52.508;13.422;2024-01-15T05:54:44;1.40;73.80
9393;DHT22;4736;52.508;13.422;2024-01-15T05:57:48;1.50;73.70
9393;DHT22;4736;52.508;13.422;2024-01-15T06:00:51;1.40;74.40
9393;DHT22;4736;52.508;13.422;2024-01-15T06:03:55;1.40;75.00
9393;DHT22;4736;52.508;13.422;2024-01-15T06:06:58;1.40;75.70
9393;DHT22;4736;52.508;13.422;2024-01-15T06:10:01;1.30;75.80
9393;DHT22;4736;52.508;13.422;2024-01-15T06:13:06;1.40;75.70
9393;DHT22;4736;52.508;13.422;2024-01-15T06:16:14;1.40;75.80
9393;DHT22;4736;52.508;13.422;2024-01-15T06:19:17;1.40;75.50
9393;DHT22;4736;52.508;13.422;2024-01-15T06:22:21;1.40;75.40
9393;DHT22;4736;52.508;13.422;2024-01-15T06:25:24;1.40;75.10
9393;DHT22;4736;52.508;13.422;2024-01-15T06:28:28;1.40;75.00
9393;DHT22;4736;52.508;13.422;2024-01-15T06:31:31;1.50;74.30
9393;DHT22;4736;52.508;13.422;2024-01-15T06:34:34;1.50;73.90
9393;DHT22;4736;52.508;13.422;2024-01-15T06:37:38;1.50;74.40
9393;DHT22;4736;52.508;13.422;2024-01-15T06:40:41;1.50;74.70
9393;DHT22;4736;52.508;13.422;2024-01-15T06:43:48;1.40;74.90
9393;DHT22;4736;52.508;13.422;2024-01-15T06:46:51;1.50;75.10
9393;DHT22;4736;52.508;13.422;2024-01-15T06:49:58;1.40;75.30
9393;DHT22;4736;52.508;13.422;2024-01-15T06:53:02;1.40;75.50
9393;DHT22;4736;52.508;13.422;2024-01-15T06:56:05;1.40;75.30
9393;DHT22;4736;52.508;13.422;2024-01-15T06:59:10;1.40;75.20
9393;DHT22;4736;52.508;13.422;2024-01-15T07:02:13;1.50;75.00
9393;DHT22;4736;52.508;13.422;2024-01-15T07:05:16;1.50;74.70
9393;DHT22;4736;52.508;13.422;2024-01-15T07:08:19;1.50;74.30
9393;DHT22;4736;52.508;13.422;2024-01-15T07:11:22;1.50;74.10
9393;DHT22;4736;52.508;13.422;2024-01-15T07:14:26;1.60;73.90
9393;DHT22;4736;52.508;13.422;2024-01-15T07:17:29;1.60;73.60
9393;DHT22;4736;52.508;13.422;2024-01-15T07:20:33;1.60;73.40
9393;DHT22;4736;52.508;13.422;2024-01-15T07:23:36;1.60;73.30
9393;DHT22;4736;52.508;13.422;2024-01-15T07:26:39;1.70;72.90
9393;DHT22;4736;52.508;13.422;2024-01-15T07:29:43;1.80;72.50
9393;DHT22;4736;52.508;13.422;2024-01-15T07:32:48;1.80;72.60
9393;DHT22;4736;52.508;13.422;2024-01-15T07:35:51;1.80;72.50
9393;DHT22;4736;52.508;13.422;2024-01-15T07:38:54;1.80;72.30
9393;DHT22;4736;52.508;13.422;2024-01-15T07:41:57;1.80;72.20
9393;DHT22;4736;52.508;13.422;2024-01-15T07:45:02;1.80;72.20
9393;DHT22;4736;52.508;13.422;2024-01-15T07:48:06;1.90;71.50
9393;DHT22;4736;52.508;13.422;2024-01-15T07:51:09;1.90;72.00
9393;DHT22;4736;52.508;13.422;2024-01-15T07:54:13;1.80;72.00
9393;DHT22;4736;52.508;13.422;2024-01-15T07:57:16;1.90;72.20
9393;DHT22;4736;52.508;13.422;2024-01-15T08:00:20;1.90;72.20
9393;DHT22;4736;52.508;13.422;2024-01-15T08:03:23;1.80;72.20
9393;DHT22;4736;52.508;13.422;2024-01-15T08:06:27;1.90;72.30
9393;DHT22;4736;52.508;13.422;2024-01-15T08:09:31;1.90;71.80
9393;DHT22;4736;52.508;13.422;2024-01-15T08:12:35;2.00;71.30
9393;DHT22;4736;52.508;13.422;2024-01-15T08:15:40;2.00;71.60
9393;DHT22;4736;52.508;13.422;2024-01-15T08:18:43;2.00;71.70
9393;DHT22;4736;52.508;13.422;2024-01-15T08:21:47;2.00;71.90
9393;DHT22;4736;52.508;13.422;2024-01-15T08:24:50;1.90;71.80
9393;DHT22;4736;52.508;13.422;2024-01-15T08:27:53;1.90;71.90
9393;DHT22;4736;52.508;13.422;2024-01-15T08:30:58;2.00;72.00
9393;DHT22;4736;52.508;13.422;2024-01-15T08:34:01;1.90;72.20
9393;DHT22;4736;52.508;13.422;2024-01-15T08:37:04;2.00;71.60
9393;DHT22;4736;52.508;13.422;2024-01-15T08:40:08;2.00;71.50
9393;DHT22;4736;52.508;13.422;2024-01-15T08:43:12;2.00;71.70
9393;DHT22;4736;52.508;13.422;2024-01-15T08:46:16;2.00;71.60
9393;DHT22;4736;52.508;13.422;2024-01-15T08:49:19;2.00;71.60
9393;DHT22;4736;52.508;13.422;2024-01-15T08:52:22;2.00;71.90
9393;DHT22;4736;52.508;13.422;2024-01-15T08:55:26;1.90;71.70
9393;DHT22;4736;52.508;13.422;2024-01-15T08:58:29;2.00;71.50
9393;DHT22;4736;52.508;13.422;2024-01-15T09:01:34;2.00;71.70
9393;DHT22;4736;52.508;13.422;2024-01-15T09:04:37;1.90;71.70
9393;DHT22;4736;52.508;13.422;2024-01-15T09:07:40;1.90;71.80
9393;DHT22;4736;52.508;13.422;2024-01-15T09:10:44;2.00;71.60
9393;DHT22;4736;52.508;13.422;2024-01-15T09:13:47;2.00;71.80
9393;DHT22;4736;52.508;13.422;2024-01-15T09:16:52;2.00;72.00
9393;DHT22;4736;52.508;13.422;2024-01-15T09:19:55;2.10;72.00
9393;DHT22;4736;52.508;13.422;2024-01-15T09:22:59;2.10;72.00
9393;DHT22;4736;52.508;13.422;2024-01-15T09:26:02;2.00;72.10
9393;DHT22;4736;52.508;13.422;2024-01-15T09:29:05;2.10;71.90
9393;DHT22;4736;52.508;13.422;2024-01-15T09:32:09;2.10;72.20
9393;DHT22;4736;52.508;13.422;2024-01-15T09:35:13;2.20;71.90
9393;DHT22;4736;52.508;13.422;2024-01-15T09:38:16;2.20;71.60
9393;DHT22;4736;52.508;13.422;2024-01-15T09:41:20;2.20;71.60
9393;DHT22;4736;52.508;13.422;2024-01-15T09:44:23;2.10;71.80
9393;DHT22;4736;52.508;13.422;2024-01-15T09:47:34;2.20;71.50
9393;DHT22;4736;52.508;13.422;2024-01-15T09:50:46;2.20;71.40
9393;DHT22;4736;52.508;13.422;2024-01-15T09:53:50;2.20;71.50
9393;DHT22;4736;52.508;13.422;2024-01-15T09:56:53;2.20;71.60
9393;DHT22;4736;52.508;13.422;2024-01-15T09:59:57;2.20;71.80
9393;DHT22;4736;52.508;13.422;2024-01-15T10:03:04;2.30;71.40
9393;DHT22;4736;52.508;13.422;2024-01-15T10:06:09;2.30;71.20
9393;DHT22;4736;52.508;13.422;2024-01-15T10:09:14;2.30;71.40
9393;DHT22;4736;52.508;13.422;2024-01-15T10:12:17;2.30;71.30
9393;DHT22;4736;52.508;13.422;2024-01-15T10:15:22;2.40;71.40
9393;DHT22;4736;52.508;13.422;2024-01-15T10:18:29;2.30;71.50
9393;DHT22;4736;52.508;13.422;2024-01-15T10:21:33;2.40;71.20
9393;DHT22;4736;52.508;13.422;2024-01-15T10:24:37;2.40;70.80
9393;DHT22;4736;52.508;13.422;2024-01-15T10:27:41;2.40;71.00
9393;DHT22;4736;52.508;13.422;2024-01-15T10:30:44;2.50;71.10
9393;DHT22;4736;52.508;13.422;2024-01-15T10:33:49;2.60;70.90
9393;DHT22;4736;52.508;13.422;2024-01-15T10:36:52;2.60;70.20
9393;DHT22;4736;52.508;13.422;2024-01-15T10:39:57;2.50;70.10
9393;DHT22;4736;52.508;13.422;2024-01-15T10:43:01;2.60;70.10
9393;DHT22;4736;52.508;13.422;2024-01-15T10:46:04;2.60;69.90
9393;DHT22;4736;52.508;13.422;2024-01-15T10:49:10;2.50;70.20
9393;DHT22;4736;52.508;13.422;2024-01-15T10:52:14;2.70;70.10
9393;DHT22;4736;52.508;13.422;2024-01-15T10:55:18;2.70;70.10
9393;DHT22;4736;52.508;13.422;2024-01-15T10:58:22;2.70;70.20
9393;DHT22;4736;52.508;13.422;2024-01-15T11:01:26;2.70;70.10
9393;DHT22;4736;52.508;13.422;2024-01-15T11:04:33;2.50;70.50
9393;DHT22;4736;52.508;13.422;2024-01-15T11:07:39;2.70;69.80
9393;DHT22;4736;52.508;13.422;2024-01-15T11:10:44;2.90;69.60
9393;DHT22;4736;52.508;13.422;2024-01-15T11:13:50;2.90;69.00
9393;DHT22;4736;52.508;13.422;2024-01-15T11:16:55;2.90;68.90
9393;DHT22;4736;52.508;13.422;2024-01-15T11:20:06;3.00;69.00
9393;DHT22;4736;52.508;13.422;2024-01-15T11:23:09;2.90;69.00
9393;DHT22;4736;52.508;13.422;2024-01-15T11:26:30;2.80;69.20
9393;DHT22;4736;52.508;13.422;2024-01-15T11:29:34;2.70;69.90
9393;DHT22;4736;52.508;13.422;2024-01-15T11:32:38;2.70;70.00
9393;DHT22;4736;52.508;13.422;2024-01-15T11:35:49;2.60;70.40
9393;DHT22;4736;52.508;13.422;2024-01-15T11:38:53;2.60;70.90
9393;DHT22;4736;52.508;13.422;2024-01-15T11:41:57;2.70;70.80
9393;DHT22;4736;52.508;13.422;2024-01-15T11:45:01;2.60;71.20
9393;DHT22;4736;52.508;13.422;2024-01-15T11:48:13;2.50;71.50
9393;DHT22;4736;52.508;13.422;2024-01-15T11:51:19;2.30;72.50
9393;DHT22;4736;52.508;13.422;2024-01-15T11:54:24;2.30;72.90
9393;DHT22;4736;52.508;13.422;2024-01-15T11:57:34;2.20;73.50
9393;DHT22;4736;52.508;13.422;2024-01-15T12:00:40;2.10;74.40
9393;DHT22;4736;52.508;13.422;2024-01-15T12:03:44;2.10;74.90
9393;DHT22;4736;52.508;13.422;2024-01-15T12:06:51;2.00;75.40
9393;DHT22;4736;52.508;13.422;2024-01-15T12:09:54;1.90;75.60
9393;DHT22;4736;52.508;13.422;2024-01-15T12:12:59;1.90;75.70
9393;DHT22;4736;52.508;13.422;2024-01-15T12:16:02;1.90;75.70
9393;DHT22;4736;52.508;13.422;2024-01-15T12:19:06;1.90;75.90
9393;DHT22;4736;52.508;13.422;2024-01-15T12:22:10;1.90;75.50
9393;DHT22;4736;52.508;13.422;2024-01-15T12:25:14;1.90;75.50
9393;DHT22;4736;52.508;13.422;2024-01-15T12:28:17;1.90;75.70
9393;DHT22;4736;52.508;13.422;2024-01-15T12:31:20;1.90;75.30
9393;DHT22;4736;52.508;13.422;2024-01-15T12:34:24;2.00;75.10
9393;DHT22;4736;52.508;13.422;2024-01-15T12:37:29;2.00;75.10
9393;DHT22;4736;52.508;13.422;2024-01-15T12:40:33;1.90;75.00
9393;DHT22;4736;52.508;13.422;2024-01-15T12:43:38;1.90;75.10
9393;DHT22;4736;52.508;13.422;2024-01-15T12:46:42;1.90;74.80
9393;DHT22;4736;52.508;13.422;2024-01-15T12:49:47;1.90;75.30
9393;DHT22;4736;52.508;13.422;2024-01-15T12:52:53;1.60;76.60
9393;DHT22;4736;52.508;13.422;2024-01-15T12:55:56;1.50;77.20
9393;DHT22;4736;52.508;13.422;2024-01-15T12:58:59;1.50;77.80
9393;DHT22;4736;52.508;13.422;2024-01-15T13:02:03;1.50;77.80
9393;DHT22;4736;52.508;13.422;2024-01-15T13:05:07;1.50;77.80
9393;DHT22;4736;52.508;13.422;2024-01-15T13:08:13;1.50;77.70
9393;DHT22;4736;52.508;13.422;2024-01-15T13:11:16;1.60;77.60
9393;DHT22;4736;52.508;13.422;2024-01-15T13:14:19;1.70;77.20
9393;DHT22;4736;52.508;13.422;2024-01-15T13:17:22;1.60;77.30
9393;DHT22;4736;52.508;13.422;2024-01-15T13:20:25;1.70;77.10
9393;DHT22;4736;52.508;13.422;2024-01-15T13:23:30;1.70;76.90
9393;DHT22;4736;52.508;13.422;2024-01-15T13:26:33;1.80;77.20
9393;DHT22;4736;52.508;13.422;2024-01-15T13:29:37;1.80;77.10
9393;DHT22;4736;52.508;13.422;2024-01-15T13:32:40;1.70;76.70
9393;DHT22;4736;52.508;13.422;2024-01-15T13:35:43;1.80;76.50
9393;DHT22;4736;52.508;13.422;2024-01-15T13:38:48;1.80;76.40
9393;DHT22;4736;52.508;13.422;2024-01-15T13:41:51;1.80;76.30
9393;DHT22;4736;52.508;13.422;2024-01-15T13:44:55;1.80;75.90
9393;DHT22;4736;52.508;13.422;2024-01-15T13:47:58;1.80;75.90
9393;DHT22;4736;52.508;13.422;2024-01-15T13:51:01;1.70;76.60
9393;DHT22;4736;52.508;13.422;2024-01-15T13:54:06;1.70;76.80
9393;DHT22;4736;52.508;13.422;2024-01-15T13:57:09;1.70;77.00
9393;DHT22;4736;52.508;13.422;2024-01-15T14:00:13;1.60;76.80
9393;DHT22;4736;52.508;13.422;2024-01-15T14:03:20;1.70;76.40
9393;DHT22;4736;52.508;13.422;2024-01-15T14:06:24;1.70;76.10
9393;DHT22;4736;52.508;13.422;2024-01-15T14:09:28;1.70;76.10
9393;DHT22;4736;52.508;13.422;2024-01-15T14:12:34;1.70;75.70
9393;DHT22;4736;52.508;13.422;2024-01-15T14:15:37;1.80;75.40
9393;DHT22;4736;52.508;13.422;2024-01-15T14:18:40;1.80;74.40
9393;DHT22;4736;52.508;13.422;2024-01-15T14:21:43;1.80;74.70
9393;DHT22;4736;52.508;13.422;2024-01-15T14:24:48;1.80;74.20
9393;DHT22;4736;52.508;13.422;2024-01-15T14:27:51;1.80;74.20
9393;DHT22;4736;52.508;13.422;2024-01-15T14:30:54;1.80;74.30
9393;DHT22;4736;52.508;13.422;2024-01-15T14:34:00;1.80;74.10
9393;DHT22;4736;52.508;13.422;2024-01-15T14:37:05;1.80;74.10
9393;DHT22;4736;52.508;13.422;2024-01-15T14:40:10;1.70;74.10
9393;DHT22;4736;52.508;13.422;2024-01-15T14:43:16;1.80;74.10
9393;DHT22;4736;52.508;13.422;2024-01-15T14:46:19;1.70;74.10
9393;DHT22;4736;52.508;13.422;2024-01-15T14:49:22;1.70;74.30
9393;DHT22;4736;52.508;13.422;2024-01-15T14:52:26;1.70;74.00
9393;DHT22;4736;52.508;13.422;2024-01-15T14:55:31;1.70;74.10
9393;DHT22;4736;52.508;13.422;2024-01-15T14:58:34;1.60;74.20
9393;DHT22;4736;52.508;13.422;2024-01-15T15:01:37;1.70;73.30
9393;DHT22;4736;52.508;13.422;2024-01-15T15:04:42;1.60;73.40
9393;DHT22;4736;52.508;13.422;2024-01-15T15:07:50;1.60;73.50
9393;DHT22;4736;52.508;13.422;2024-01-15T15:10:54;1.60;73.70
9393;DHT22;4736;52.508;13.422;2024-01-15T15:13:58;1.60;73.80
9393;DHT22;4736;52.508;13.422;2024-01-15T15:17:02;1.60;74.00
9393;DHT22;4736;52.508;13.422;2024-01-15T15:20:07;1.50;74.10
9393;DHT22;4736;52.508;13.422;2024-01-15T15:23:10;1.50;74.20
9393;DHT22;4736;52.508;13.422;2024-01-15T15:26:15;1.60;74.10
9393;DHT22;4736;52.508;13.422;2024-01-15T15:29:18;1.50;74.20
9393;DHT22;4736;52.508;13.422;2024-01-15T15:32:22;1.50;74.10
9393;DHT22;4736;52.508;13.422;2024-01-15T15:35:27;1.50;74.10
9393;DHT22;4736;52.508;13.422;2024-01-15T15:38:30;1.50;74.10
9393;DHT22;4736;52.508;13.422;2024-01-15T15:41:35;1.40;74.70
9393;DHT22;4736;52.508;13.422;2024-01-15T15:44:39;1.40;75.30
9393;DHT22;4736;52.508;13.422;2024-01-15T15:47:48;1.40;76.00
9393;DHT22;4736;52.508;13.422;2024-01-15T15:50:51;1.40;76.50
9393;DHT22;4736;52.508;13.422;2024-01-15T15:53:54;1.30;77.00
9393;DHT22;4736;52.508;13.422;2024-01-15T15:56:59;1.20;77.90
9393;DHT22;4736;52.508;13.422;2024-01-15T16:00:02;1.20;78.00
9393;DHT22;4736;52.508;13.422;2024-01-15T16:03:07;1.10;78.20
9393;DHT22;4736;52.508;13.422;2024-01-15T16:06:10;1.10;78.60
9393;DHT22;4736;52.508;13.422;2024-01-15T16:09:14;1.10;78.50
9393;DHT22;4736;52.508;13.422;2024-01-15T16:12:18;1.10;78.50
9393;DHT22;4736;52.508;13.422;2024-01-15T16:15:22;1.10;78.40
9393;DHT22;4736;52.508;13.422;2024-01-15T16:18:25;1.10;78.10
9393;DHT22;4736;52.508;13.422;2024-01-15T16:21:49;1.10;78.20
9393;DHT22;4736;52.508;13.422;2024-01-15T16:25:12;1.20;78.20
9393;DHT22;4736;52.508;13.422;2024-01-15T16:28:17;1.10;78.20
9393;DHT22;4736;52.508;13.422;2024-01-15T16:31:20;1.10;78.50
9393;DHT22;4736;52.508;13.422;2024-01-15T16:34:25;1.10;78.50
9393;DHT22;4736;52.508;13.422;2024-01-15T16:37:28;1.10;78.60
9393;DHT22;4736;52.508;13.422;2024-01-15T16:40:31;1.00;78.80
9393;DHT22;4736;52.508;13.422;2024-01-15T16:43:36;1.00;79.00
9393;DHT22;4736;52.508;13.422;2024-01-15T16:46:39;1.00;78.90
9393;DHT22;4736;52.508;13.422;2024-01-15T16:49:42;1.00;78.90
9393;DHT22;4736;52.508;13.422;2024-01-15T16:52:45;1.00;78.20
9393;DHT22;4736;52.508;13.422;2024-01-15T16:55:48;1.00;78.40
9393;DHT22;4736;52.508;13.422;2024-01-15T16:58:53;0.90;78.40
9393;DHT22;4736;52.508;13.422;2024-01-15T17:01:59;0.80;78.60
9393;DHT22;4736;52.508;13.422;2024-01-15T17:05:03;0.80;78.40
9393;DHT22;4736;52.508;13.422;2024-01-15T17:08:06;0.80;78.20
9393;DHT22;4736;52.508;13.422;2024-01-15T17:11:11;0.80;78.10
9393;DHT22;4736;52.508;13.422;2024-01-15T17:14:16;0.80;78.00
9393;DHT22;4736;52.508;13.422;2024-01-15T17:17:19;0.80;78.30
9393;DHT22;4736;52.508;13.422;2024-01-15T17:20:23;0.80;78.40
9393;DHT22;4736;52.508;13.422;2024-01-15T17:23:27;0.80;78.40
9393;DHT22;4736;52.508;13.422;2024-01-15T17:26:31;0.70;78.70
9393;DHT22;4736;52.508;13.422;2024-01-15T17:29:36;0.70;78.80
9393;DHT22;4736;52.508;13.422;2024-01-15T17:32:39;0.80;78.80
9393;DHT22;4736;52.508;13.422;2024-01-15T17:35:50;0.80;79.00
9393;DHT22;4736;52.508;13.422;2024-01-15T17:38:54;0.70;79.20
9393;DHT22;4736;52.508;13.422;2024-01-15T17:41:59;0.80;79.50
9393;DHT22;4736;52.508;13.422;2024-01-15T17:45:05;0.80;79.10
9393;DHT22;4736;52.508;13.422;2024-01-15T17:48:09;0.80;79.00
9393;DHT22;4736;52.508;13.422;2024-01-15T17:51:16;0.80;79.00
9393;DHT22;4736;52.508;13.422;2024-01-15T17:54:19;0.80;79.20
9393;DHT22;4736;52.508;13.422;2024-01-15T17:57:23;0.80;79.30
9393;DHT22;4736;52.508;13.422;2024-01-15T18:00:28;0.80;79.30
9393;DHT22;4736;52.508;13.422;2024-01-15T18:03:31;0.80;79.50
9393;DHT22;4736;52.508;13.422;2024-01-15T18:06:34;0.80;79.50
9393;DHT22;4736;52.508;13.422;2024-01-15T18:09:38;0.80;79.10
9393;DHT22;4736;52.508;13.422;2024-01-15T18:12:41;0.90;78.80
9393;DHT22;4736;52.508;13.422;2024-01-15T18:15:46;0.80;78.90
9393;DHT22;4736;52.508;13.422;2024-01-15T18:18:50;0.80;78.90
9393;DHT22;4736;52.508;13.422;2024-01-15T18:21:53;0.80;78.80
9393;DHT22;4736;52.508;13.422;2024-01-15T18:24:57;0.90;78.60
9393;DHT22;4736;52.508;13.422;2024-01-15T18:28:00;0.90;78.40
9393;DHT22;4736;52.508;13.422;2024-01-15T18:31:04;0.80;78.40
9393;DHT22;4736;52.508;13.422;2024-01-15T18:34:09;0.80;78.40
9393;DHT22;4736;52.508;13.422;2024-01-15T18:37:16;0.80;78.60
9393;DHT22;4736;52.508;13.422;2024-01-15T18:40:19;0.80;77.30
9393;DHT22;4736;52.508;13.422;2024-01-15T18:43:23;0.80;76.50
9393;DHT22;4736;52.508;13.422;2024-01-15T18:46:27;0.70;76.50
9393;DHT22;4736;52.508;13.422;2024-01-15T18:49:33;0.60;74.50
9393;DHT22;4736;52.508;13.422;2024-01-15T18:52:36;0.50;73.60
9393;DHT22;4736;52.508;13.422;2024-01-15T18:55:39;0.50;72.90
9393;DHT22;4736;52.508;13.422;2024-01-15T18:58:44;0.50;72.00
9393;DHT22;4736;52.508;13.422;2024-01-15T19:01:49;0.40;72.10
9393;DHT22;4736;52.508;13.422;2024-01-15T19:04:52;0.50;71.60
9393;DHT22;4736;52.508;13.422;2024-01-15T19:07:55;0.40;71.10
9393;DHT22;4736;52.508;13.422;2024-01-15T19:10:58;0.50;70.60
9393;DHT22;4736;52.508;13.422;2024-01-15T19:14:01;0.40;69.80
9393;DHT22;4736;52.508;13.422;2024-01-15T19:17:06;0.40;69.20
9393;DHT22;4736;52.508;13.422;2024-01-15T19:20:10;0.40;69.00
9393;DHT22;4736;52.508;13.422;2024-01-15T19:23:15;0.40;69.00
9393;DHT22;4736;52.508;13.422;2024-01-15T19:26:19;0.40;69.00
9393;DHT22;4736;52.508;13.422;2024-01-15T19:29:23;0.30;68.90
9393;DHT22;4736;52.508;13.422;2024-01-15T19:32:28;0.30;68.60
9393;DHT22;4736;52.508;13.422;2024-01-15T19:35:33;0.30;68.80
9393;DHT22;4736;52.508;13.422;2024-01-15T19:38:37;0.20;69.00
9393;DHT22;4736;52.508;13.422;2024-01-15T19:41:45;0.20;69.30
9393;DHT22;4736;52.508;13.422;2024-01-15T19:44:48;0.20;67.90
9393;DHT22;4736;52.508;13.422;2024-01-15T19:47:54;0.20;67.60
9393;DHT22;4736;52.508;13.422;2024-01-15T19:50:58;0.10;67.80
9393;DHT22;4736;52.508;13.422;2024-01-15T19:54:01;0.20;67.50
9393;DHT22;4736;52.508;13.422;2024-01-15T19:57:04;0.10;68.00
9393;DHT22;4736;52.508;13.422;2024-01-15T20:00:11;0.00;68.00
9393;DHT22;4736;52.508;13.422;2024-01-15T20:03:16;0.00;68.00